sensor_id;sensor_type;location;lat;lon;timestamp;P1;durP1;ratioP1;P2;durP2;ratioP2
69894;SDS011;57172;52.034;5.090;2023-02-28T00:00:35;7.40;;;3.20;;
69894;SDS011;57172;52.034;5.090;2023-02-28T00:03:03;6.63;;;3.00;;
69894;SDS011;57172;52.034;5.090;2023-02-28T00:05:30;9.25;;;3.13;;
69894;SDS011;57172;52.034;5.090;2023-02-28T00:07:57;7.45;;;3.10;;
69894;SDS011;57172;52.034;5.090;2023-02-28T00:10:25;5.40;;;2.97;;
69894;SDS011;57172;52.034;5.090;2023-02-28T00:12:55;7.47;;;3.13;;
69894;SDS011;57172;52.034;5.090;2023-02-28T00:15:25;6.32;;;3.10;;
69894;SDS011;57172;52.034;5.090;2023-02-28T00:17:52;7.43;;;3.30;;
69894;SDS011;57172;52.034;5.090;2023-02-28T00:20:19;7.22;;;3.28;;
69894;SDS011;57172;52.034;5.090;2023-02-28T00:22:47;6.97;;;3.10;;
69894;SDS011;57172;52.034;5.090;2023-02-28T00:25:17;7.18;;;3.03;;
69894;SDS011;57172;52.034;5.090;2023-02-28T00:27:46;9.57;;;3.40;;
69894;SDS011;57172;52.034;5.090;2023-02-28T00:30:14;5.50;;;3.28;;
69894;SDS011;57172;52.034;5.090;2023-02-28T00:32:45;8.50;;;3.42;;
69894;SDS011;57172;52.034;5.090;2023-02-28T00:35:13;9.02;;;3.53;;
69894;SDS011;57172;52.034;5.090;2023-02-28T00:37:40;7.45;;;3.58;;
69894;SDS011;57172;52.034;5.090;2023-02-28T00:40:07;10.00;;;3.97;;
69894;SDS011;57172;52.034;5.090;2023-02-28T00:42:36;8.02;;;3.83;;
69894;SDS011;57172;52.034;5.090;2023-02-28T00:45:03;6.93;;;3.63;;
69894;SDS011;57172;52.034;5.090;2023-02-28T00:47:31;9.00;;;3.70;;
69894;SDS011;57172;52.034;5.090;2023-02-28T00:49:58;11.80;;;3.47;;
69894;SDS011;57172;52.034;5.090;2023-02-28T00:52:27;9.23;;;3.92;;
69894;SDS011;57172;52.034;5.090;2023-02-28T00:54:54;9.27;;;3.60;;
69894;SDS011;57172;52.034;5.090;2023-02-28T00:57:21;8.07;;;3.65;;
69894;SDS011;57172;52.034;5.090;2023-02-28T00:59:48;9.68;;;3.55;;
69894;SDS011;57172;52.034;5.090;2023-02-28T01:02:14;7.82;;;3.83;;
69894;SDS011;57172;52.034;5.090;2023-02-28T01:04:42;9.32;;;4.00;;
69894;SDS011;57172;52.034;5.090;2023-02-28T01:07:08;11.35;;;3.70;;
69894;SDS011;57172;52.034;5.090;2023-02-28T01:09:35;8.45;;;3.92;;
69894;SDS011;57172;52.034;5.090;2023-02-28T01:12:03;9.85;;;3.70;;
69894;SDS011;57172;52.034;5.090;2023-02-28T01:14:31;7.45;;;3.80;;
69894;SDS011;57172;52.034;5.090;2023-02-28T01:16:58;7.00;;;3.60;;
69894;SDS011;57172;52.034;5.090;2023-02-28T01:19:26;8.45;;;3.67;;
69894;SDS011;57172;52.034;5.090;2023-02-28T01:21:53;8.43;;;3.78;;
69894;SDS011;57172;52.034;5.090;2023-02-28T01:24:20;9.00;;;3.65;;
69894;SDS011;57172;52.034;5.090;2023-02-28T01:26:46;9.57;;;3.67;;
69894;SDS011;57172;52.034;5.090;2023-02-28T01:29:13;8.27;;;3.78;;
69894;SDS011;57172;52.034;5.090;2023-02-28T01:31:41;7.45;;;3.35;;
69894;SDS011;57172;52.034;5.090;2023-02-28T01:34:08;6.75;;;3.40;;
69894;SDS011;57172;52.034;5.090;2023-02-28T01:36:35;10.73;;;3.78;;
69894;SDS011;57172;52.034;5.090;2023-02-28T01:39:02;9.13;;;3.70;;
69894;SDS011;57172;52.034;5.090;2023-02-28T01:41:31;7.50;;;3.45;;
69894;SDS011;57172;52.034;5.090;2023-02-28T01:44:03;7.25;;;3.45;;
69894;SDS011;57172;52.034;5.090;2023-02-28T01:46:54;12.30;;;3.88;;
69894;SDS011;57172;52.034;5.090;2023-02-28T01:49:21;8.43;;;3.97;;
69894;SDS011;57172;52.034;5.090;2023-02-28T01:51:49;9.25;;;4.10;;
69894;SDS011;57172;52.034;5.090;2023-02-28T01:54:21;6.90;;;3.83;;
69894;SDS011;57172;52.034;5.090;2023-02-28T01:57:02;9.50;;;4.20;;
69894;SDS011;57172;52.034;5.090;2023-02-28T01:59:34;9.02;;;3.95;;
69894;SDS011;57172;52.034;5.090;2023-02-28T02:02:06;10.23;;;4.28;;
69894;SDS011;57172;52.034;5.090;2023-02-28T02:04:35;9.15;;;4.00;;
69894;SDS011;57172;52.034;5.090;2023-02-28T02:07:07;9.02;;;4.22;;
69894;SDS011;57172;52.034;5.090;2023-02-28T02:09:35;7.55;;;3.85;;
69894;SDS011;57172;52.034;5.090;2023-02-28T02:12:05;9.07;;;4.05;;
69894;SDS011;57172;52.034;5.090;2023-02-28T02:14:48;8.98;;;4.05;;
69894;SDS011;57172;52.034;5.090;2023-02-28T02:18:03;9.02;;;3.83;;
69894;SDS011;57172;52.034;5.090;2023-02-28T02:29:04;8.40;;;4.03;;
69894;SDS011;57172;52.034;5.090;2023-02-28T02:32:13;10.10;;;3.90;;
69894;SDS011;57172;52.034;5.090;2023-02-28T02:35:26;7.47;;;3.78;;
69894;SDS011;57172;52.034;5.090;2023-02-28T02:40:46;9.80;;;4.38;;
69894;SDS011;57172;52.034;5.090;2023-02-28T02:43:24;6.95;;;3.97;;
69894;SDS011;57172;52.034;5.090;2023-02-28T02:45:59;5.63;;;3.60;;
69894;SDS011;57172;52.034;5.090;2023-02-28T02:48:38;9.20;;;3.88;;
69894;SDS011;57172;52.034;5.090;2023-02-28T02:51:10;7.38;;;4.00;;
69894;SDS011;57172;52.034;5.090;2023-02-28T02:56:45;9.93;;;3.95;;
69894;SDS011;57172;52.034;5.090;2023-02-28T02:59:16;7.22;;;3.90;;
69894;SDS011;57172;52.034;5.090;2023-02-28T03:01:49;8.50;;;3.95;;
69894;SDS011;57172;52.034;5.090;2023-02-28T03:04:20;7.43;;;4.00;;
69894;SDS011;57172;52.034;5.090;2023-02-28T03:06:50;6.65;;;3.60;;
69894;SDS011;57172;52.034;5.090;2023-02-28T03:09:24;8.80;;;4.20;;
69894;SDS011;57172;52.034;5.090;2023-02-28T03:11:52;9.18;;;4.20;;
69894;SDS011;57172;52.034;5.090;2023-02-28T03:14:37;9.60;;;4.15;;
69894;SDS011;57172;52.034;5.090;2023-02-28T03:25:38;8.73;;;3.90;;
69894;SDS011;57172;52.034;5.090;2023-02-28T03:33:15;9.80;;;3.95;;
69894;SDS011;57172;52.034;5.090;2023-02-28T03:35:57;7.63;;;3.90;;
69894;SDS011;57172;52.034;5.090;2023-02-28T03:38:35;13.18;;;3.90;;
69894;SDS011;57172;52.034;5.090;2023-02-28T03:41:14;8.10;;;3.75;;
69894;SDS011;57172;52.034;5.090;2023-02-28T03:43:58;6.95;;;3.78;;
69894;SDS011;57172;52.034;5.090;2023-02-28T03:46:45;7.10;;;3.70;;
69894;SDS011;57172;52.034;5.090;2023-02-28T03:49:20;10.40;;;4.05;;
69894;SDS011;57172;52.034;5.090;2023-02-28T03:51:51;7.70;;;4.07;;
69894;SDS011;57172;52.034;5.090;2023-02-28T03:54:22;8.80;;;3.95;;
69894;SDS011;57172;52.034;5.090;2023-02-28T03:56:57;8.48;;;3.83;;
69894;SDS011;57172;52.034;5.090;2023-02-28T03:59:41;8.65;;;4.03;;
69894;SDS011;57172;52.034;5.090;2023-02-28T04:02:12;8.30;;;3.90;;
69894;SDS011;57172;52.034;5.090;2023-02-28T04:04:39;8.18;;;4.00;;
69894;SDS011;57172;52.034;5.090;2023-02-28T04:07:11;8.18;;;3.90;;
69894;SDS011;57172;52.034;5.090;2023-02-28T04:09:38;7.32;;;3.85;;
69894;SDS011;57172;52.034;5.090;2023-02-28T04:12:06;9.10;;;4.00;;
69894;SDS011;57172;52.034;5.090;2023-02-28T04:14:33;8.07;;;4.32;;
69894;SDS011;57172;52.034;5.090;2023-02-28T04:16:59;8.75;;;4.07;;
69894;SDS011;57172;52.034;5.090;2023-02-28T04:19:26;10.65;;;4.20;;
69894;SDS011;57172;52.034;5.090;2023-02-28T04:21:53;7.93;;;4.40;;
69894;SDS011;57172;52.034;5.090;2023-02-28T04:24:24;8.68;;;4.10;;
69894;SDS011;57172;52.034;5.090;2023-02-28T04:26:54;8.57;;;4.35;;
69894;SDS011;57172;52.034;5.090;2023-02-28T04:29:24;10.88;;;4.20;;
69894;SDS011;57172;52.034;5.090;2023-02-28T04:31:55;10.70;;;4.22;;
69894;SDS011;57172;52.034;5.090;2023-02-28T04:34:26;8.82;;;4.50;;
69894;SDS011;57172;52.034;5.090;2023-02-28T04:36:54;9.05;;;4.90;;
69894;SDS011;57172;52.034;5.090;2023-02-28T04:39:38;7.10;;;4.38;;
69894;SDS011;57172;52.034;5.090;2023-02-28T04:42:05;10.02;;;4.50;;
69894;SDS011;57172;52.034;5.090;2023-02-28T04:44:32;8.13;;;4.65;;
69894;SDS011;57172;52.034;5.090;2023-02-28T04:46:59;11.88;;;4.70;;
69894;SDS011;57172;52.034;5.090;2023-02-28T04:49:26;8.60;;;4.70;;
69894;SDS011;57172;52.034;5.090;2023-02-28T04:51:52;7.68;;;4.75;;
69894;SDS011;57172;52.034;5.090;2023-02-28T04:54:19;11.32;;;5.00;;
69894;SDS011;57172;52.034;5.090;2023-02-28T04:56:46;8.18;;;4.88;;
69894;SDS011;57172;52.034;5.090;2023-02-28T04:59:16;8.27;;;4.22;;
69894;SDS011;57172;52.034;5.090;2023-02-28T05:01:45;6.90;;;4.10;;
69894;SDS011;57172;52.034;5.090;2023-02-28T05:04:13;7.07;;;4.00;;
69894;SDS011;57172;52.034;5.090;2023-02-28T05:06:41;7.55;;;3.95;;
69894;SDS011;57172;52.034;5.090;2023-02-28T05:09:08;7.43;;;3.40;;
69894;SDS011;57172;52.034;5.090;2023-02-28T05:11:38;6.35;;;3.00;;
69894;SDS011;57172;52.034;5.090;2023-02-28T05:14:10;6.88;;;3.17;;
69894;SDS011;57172;52.034;5.090;2023-02-28T05:16:40;6.10;;;3.08;;
69894;SDS011;57172;52.034;5.090;2023-02-28T05:19:07;6.13;;;3.33;;
69894;SDS011;57172;52.034;5.090;2023-02-28T05:21:35;7.97;;;3.40;;
69894;SDS011;57172;52.034;5.090;2023-02-28T05:24:04;9.15;;;3.58;;
69894;SDS011;57172;52.034;5.090;2023-02-28T05:26:37;6.50;;;3.50;;
69894;SDS011;57172;52.034;5.090;2023-02-28T05:29:06;6.45;;;3.30;;
69894;SDS011;57172;52.034;5.090;2023-02-28T05:31:33;6.05;;;3.30;;
69894;SDS011;57172;52.034;5.090;2023-02-28T05:34:00;5.60;;;3.20;;
69894;SDS011;57172;52.034;5.090;2023-02-28T05:36:27;8.73;;;3.60;;
69894;SDS011;57172;52.034;5.090;2023-02-28T05:38:54;7.47;;;3.50;;
69894;SDS011;57172;52.034;5.090;2023-02-28T05:41:21;7.80;;;3.90;;
69894;SDS011;57172;52.034;5.090;2023-02-28T05:43:48;8.32;;;3.80;;
69894;SDS011;57172;52.034;5.090;2023-02-28T05:46:15;6.75;;;4.13;;
69894;SDS011;57172;52.034;5.090;2023-02-28T05:48:43;7.18;;;3.80;;
69894;SDS011;57172;52.034;5.090;2023-02-28T05:51:13;6.05;;;3.70;;
69894;SDS011;57172;52.034;5.090;2023-02-28T05:53:40;8.10;;;4.43;;
69894;SDS011;57172;52.034;5.090;2023-02-28T05:56:07;7.32;;;4.15;;
69894;SDS011;57172;52.034;5.090;2023-02-28T05:58:34;8.90;;;4.50;;
69894;SDS011;57172;52.034;5.090;2023-02-28T06:01:18;8.48;;;4.18;;
69894;SDS011;57172;52.034;5.090;2023-02-28T06:04:00;7.07;;;4.00;;
69894;SDS011;57172;52.034;5.090;2023-02-28T06:06:28;7.75;;;4.10;;
69894;SDS011;57172;52.034;5.090;2023-02-28T06:08:56;8.50;;;4.20;;
69894;SDS011;57172;52.034;5.090;2023-02-28T06:11:23;7.40;;;4.20;;
69894;SDS011;57172;52.034;5.090;2023-02-28T06:13:54;8.38;;;4.20;;
69894;SDS011;57172;52.034;5.090;2023-02-28T06:16:23;7.63;;;4.00;;
69894;SDS011;57172;52.034;5.090;2023-02-28T06:18:50;8.35;;;4.18;;
69894;SDS011;57172;52.034;5.090;2023-02-28T06:21:18;8.18;;;4.50;;
69894;SDS011;57172;52.034;5.090;2023-02-28T06:23:45;7.80;;;4.43;;
69894;SDS011;57172;52.034;5.090;2023-02-28T06:26:12;11.52;;;4.50;;
69894;SDS011;57172;52.034;5.090;2023-02-28T06:28:39;10.27;;;4.70;;
69894;SDS011;57172;52.034;5.090;2023-02-28T06:31:07;9.27;;;4.47;;
69894;SDS011;57172;52.034;5.090;2023-02-28T06:33:39;8.45;;;4.25;;
69894;SDS011;57172;52.034;5.090;2023-02-28T06:36:06;9.85;;;4.40;;
69894;SDS011;57172;52.034;5.090;2023-02-28T06:38:34;7.57;;;4.38;;
69894;SDS011;57172;52.034;5.090;2023-02-28T06:41:02;8.70;;;4.55;;
69894;SDS011;57172;52.034;5.090;2023-02-28T06:43:32;9.80;;;4.30;;
69894;SDS011;57172;52.034;5.090;2023-02-28T06:46:05;8.60;;;4.53;;
69894;SDS011;57172;52.034;5.090;2023-02-28T06:48:33;9.43;;;4.70;;
69894;SDS011;57172;52.034;5.090;2023-02-28T06:51:02;8.38;;;4.53;;
69894;SDS011;57172;52.034;5.090;2023-02-28T06:53:30;9.70;;;4.93;;
69894;SDS011;57172;52.034;5.090;2023-02-28T06:55:57;8.93;;;4.65;;
69894;SDS011;57172;52.034;5.090;2023-02-28T06:58:24;12.75;;;4.85;;
69894;SDS011;57172;52.034;5.090;2023-02-28T07:00:51;8.48;;;4.85;;
69894;SDS011;57172;52.034;5.090;2023-02-28T07:03:18;14.30;;;5.38;;
69894;SDS011;57172;52.034;5.090;2023-02-28T07:05:45;9.38;;;4.80;;
69894;SDS011;57172;52.034;5.090;2023-02-28T07:08:12;8.63;;;5.00;;
69894;SDS011;57172;52.034;5.090;2023-02-28T07:10:39;11.00;;;5.47;;
69894;SDS011;57172;52.034;5.090;2023-02-28T07:13:07;11.30;;;5.57;;
69894;SDS011;57172;52.034;5.090;2023-02-28T07:15:35;10.80;;;5.63;;
69894;SDS011;57172;52.034;5.090;2023-02-28T07:18:07;13.18;;;5.50;;
69894;SDS011;57172;52.034;5.090;2023-02-28T07:20:34;14.18;;;5.55;;
69894;SDS011;57172;52.034;5.090;2023-02-28T07:23:01;11.20;;;5.65;;
69894;SDS011;57172;52.034;5.090;2023-02-28T07:25:28;14.00;;;5.65;;
69894;SDS011;57172;52.034;5.090;2023-02-28T07:27:55;12.77;;;5.78;;
69894;SDS011;57172;52.034;5.090;2023-02-28T07:30:23;10.45;;;5.20;;
69894;SDS011;57172;52.034;5.090;2023-02-28T07:32:49;13.73;;;5.38;;
69894;SDS011;57172;52.034;5.090;2023-02-28T07:35:16;9.90;;;5.10;;
69894;SDS011;57172;52.034;5.090;2023-02-28T07:37:43;12.23;;;5.20;;
69894;SDS011;57172;52.034;5.090;2023-02-28T07:40:10;11.38;;;5.78;;
69894;SDS011;57172;52.034;5.090;2023-02-28T07:42:38;13.95;;;5.50;;
69894;SDS011;57172;52.034;5.090;2023-02-28T07:45:07;10.73;;;5.50;;
69894;SDS011;57172;52.034;5.090;2023-02-28T07:47:38;10.10;;;5.35;;
69894;SDS011;57172;52.034;5.090;2023-02-28T07:50:05;11.40;;;5.35;;
69894;SDS011;57172;52.034;5.090;2023-02-28T07:52:33;9.95;;;5.43;;
69894;SDS011;57172;52.034;5.090;2023-02-28T07:55:00;12.30;;;6.20;;
69894;SDS011;57172;52.034;5.090;2023-02-28T07:57:27;11.07;;;5.50;;
69894;SDS011;57172;52.034;5.090;2023-02-28T07:59:54;10.70;;;5.57;;
69894;SDS011;57172;52.034;5.090;2023-02-28T08:02:21;9.50;;;5.70;;
69894;SDS011;57172;52.034;5.090;2023-02-28T08:04:47;9.35;;;5.68;;
69894;SDS011;57172;52.034;5.090;2023-02-28T08:07:16;10.77;;;5.72;;
69894;SDS011;57172;52.034;5.090;2023-02-28T08:09:44;9.73;;;5.50;;
69894;SDS011;57172;52.034;5.090;2023-02-28T08:12:11;11.50;;;5.72;;
69894;SDS011;57172;52.034;5.090;2023-02-28T08:14:38;10.57;;;5.88;;
69894;SDS011;57172;52.034;5.090;2023-02-28T08:17:05;13.63;;;5.90;;
69894;SDS011;57172;52.034;5.090;2023-02-28T08:19:33;11.82;;;5.47;;
69894;SDS011;57172;52.034;5.090;2023-02-28T08:21:59;11.65;;;5.53;;
69894;SDS011;57172;52.034;5.090;2023-02-28T08:24:26;10.07;;;5.63;;
69894;SDS011;57172;52.034;5.090;2023-02-28T08:26:53;12.38;;;6.47;;
69894;SDS011;57172;52.034;5.090;2023-02-28T08:29:20;10.18;;;6.10;;
69894;SDS011;57172;52.034;5.090;2023-02-28T08:31:48;11.27;;;5.05;;
69894;SDS011;57172;52.034;5.090;2023-02-28T08:34:15;9.68;;;4.72;;
69894;SDS011;57172;52.034;5.090;2023-02-28T08:36:42;8.85;;;4.68;;
69894;SDS011;57172;52.034;5.090;2023-02-28T08:39:11;8.85;;;4.53;;
69894;SDS011;57172;52.034;5.090;2023-02-28T08:41:38;9.75;;;4.47;;
69894;SDS011;57172;52.034;5.090;2023-02-28T08:44:05;10.65;;;4.70;;
69894;SDS011;57172;52.034;5.090;2023-02-28T08:46:32;7.85;;;4.00;;
69894;SDS011;57172;52.034;5.090;2023-02-28T08:48:59;9.02;;;4.00;;
69894;SDS011;57172;52.034;5.090;2023-02-28T08:51:27;9.57;;;4.15;;
69894;SDS011;57172;52.034;5.090;2023-02-28T08:53:57;7.22;;;4.28;;
69894;SDS011;57172;52.034;5.090;2023-02-28T08:56:26;8.13;;;4.18;;
69894;SDS011;57172;52.034;5.090;2023-02-28T08:58:55;6.55;;;3.80;;
69894;SDS011;57172;52.034;5.090;2023-02-28T09:01:24;6.78;;;3.80;;
69894;SDS011;57172;52.034;5.090;2023-02-28T09:03:54;6.70;;;3.55;;
69894;SDS011;57172;52.034;5.090;2023-02-28T09:06:27;9.57;;;3.75;;
69894;SDS011;57172;52.034;5.090;2023-02-28T09:08:57;7.20;;;3.80;;
69894;SDS011;57172;52.034;5.090;2023-02-28T09:11:25;7.07;;;3.70;;
69894;SDS011;57172;52.034;5.090;2023-02-28T09:13:52;6.80;;;3.67;;
69894;SDS011;57172;52.034;5.090;2023-02-28T09:16:19;6.32;;;3.42;;
69894;SDS011;57172;52.034;5.090;2023-02-28T09:18:46;8.32;;;4.10;;
69894;SDS011;57172;52.034;5.090;2023-02-28T09:21:14;5.85;;;3.67;;
69894;SDS011;57172;52.034;5.090;2023-02-28T09:23:46;7.95;;;2.95;;
69894;SDS011;57172;52.034;5.090;2023-02-28T09:26:16;7.22;;;3.35;;
69894;SDS011;57172;52.034;5.090;2023-02-28T09:28:44;6.95;;;3.50;;
69894;SDS011;57172;52.034;5.090;2023-02-28T09:31:12;8.65;;;3.60;;
69894;SDS011;57172;52.034;5.090;2023-02-28T09:33:41;6.45;;;3.35;;
69894;SDS011;57172;52.034;5.090;2023-02-28T09:36:08;6.65;;;3.88;;
69894;SDS011;57172;52.034;5.090;2023-02-28T09:38:35;6.88;;;3.53;;
69894;SDS011;57172;52.034;5.090;2023-02-28T09:41:03;5.88;;;2.97;;
69894;SDS011;57172;52.034;5.090;2023-02-28T09:43:37;7.13;;;3.15;;
69894;SDS011;57172;52.034;5.090;2023-02-28T09:48:51;4.68;;;3.10;;
69894;SDS011;57172;52.034;5.090;2023-02-28T09:53:52;4.00;;;2.90;;
69894;SDS011;57172;52.034;5.090;2023-02-28T09:56:38;3.90;;;2.65;;
69894;SDS011;57172;52.034;5.090;2023-02-28T10:07:17;5.50;;;2.30;;
69894;SDS011;57172;52.034;5.090;2023-02-28T10:09:51;4.53;;;2.30;;
69894;SDS011;57172;52.034;5.090;2023-02-28T10:12:21;4.60;;;2.40;;
69894;SDS011;57172;52.034;5.090;2023-02-28T10:14:49;4.72;;;2.63;;
69894;SDS011;57172;52.034;5.090;2023-02-28T10:17:19;6.17;;;2.50;;
69894;SDS011;57172;52.034;5.090;2023-02-28T10:25:20;4.38;;;2.67;;
69894;SDS011;57172;52.034;5.090;2023-02-28T10:27:53;4.07;;;2.67;;
69894;SDS011;57172;52.034;5.090;2023-02-28T10:30:39;4.43;;;2.70;;
69894;SDS011;57172;52.034;5.090;2023-02-28T10:33:19;5.20;;;2.80;;
69894;SDS011;57172;52.034;5.090;2023-02-28T10:35:46;3.85;;;2.70;;
69894;SDS011;57172;52.034;5.090;2023-02-28T10:38:15;4.80;;;2.95;;
69894;SDS011;57172;52.034;5.090;2023-02-28T10:40:47;4.88;;;2.80;;
69894;SDS011;57172;52.034;5.090;2023-02-28T10:48:27;3.78;;;2.75;;
69894;SDS011;57172;52.034;5.090;2023-02-28T10:51:00;3.90;;;2.85;;
69894;SDS011;57172;52.034;5.090;2023-02-28T10:53:31;4.30;;;2.97;;
69894;SDS011;57172;52.034;5.090;2023-02-28T10:56:21;3.87;;;2.70;;
69894;SDS011;57172;52.034;5.090;2023-02-28T11:04:18;3.40;;;2.47;;
69894;SDS011;57172;52.034;5.090;2023-02-28T11:06:59;3.63;;;2.50;;
69894;SDS011;57172;52.034;5.090;2023-02-28T11:09:53;4.53;;;2.50;;
69894;SDS011;57172;52.034;5.090;2023-02-28T11:17:54;3.30;;;2.47;;
69894;SDS011;57172;52.034;5.090;2023-02-28T11:20:25;3.40;;;2.50;;
69894;SDS011;57172;52.034;5.090;2023-02-28T11:22:56;4.33;;;2.57;;
69894;SDS011;57172;52.034;5.090;2023-02-28T11:28:05;6.10;;;2.60;;
69894;SDS011;57172;52.034;5.090;2023-02-28T11:33:42;3.72;;;2.85;;
69894;SDS011;57172;52.034;5.090;2023-02-28T11:36:12;3.70;;;2.43;;
69894;SDS011;57172;52.034;5.090;2023-02-28T11:38:55;3.90;;;2.80;;
69894;SDS011;57172;52.034;5.090;2023-02-28T11:41:33;3.67;;;2.60;;
69894;SDS011;57172;52.034;5.090;2023-02-28T11:44:30;4.78;;;2.78;;
69894;SDS011;57172;52.034;5.090;2023-02-28T12:01:56;3.70;;;2.60;;
69894;SDS011;57172;52.034;5.090;2023-02-28T12:07:26;12.32;;;3.03;;
69894;SDS011;57172;52.034;5.090;2023-02-28T12:10:24;3.80;;;2.60;;
69894;SDS011;57172;52.034;5.090;2023-02-28T12:12:59;3.92;;;2.70;;
69894;SDS011;57172;52.034;5.090;2023-02-28T12:21:15;3.97;;;2.88;;
69894;SDS011;57172;52.034;5.090;2023-02-28T12:27:02;3.88;;;2.78;;
69894;SDS011;57172;52.034;5.090;2023-02-28T12:29:43;3.20;;;2.70;;
69894;SDS011;57172;52.034;5.090;2023-02-28T12:32:18;5.77;;;2.80;;
69894;SDS011;57172;52.034;5.090;2023-02-28T12:35:01;3.22;;;2.60;;
69894;SDS011;57172;52.034;5.090;2023-02-28T12:37:37;3.10;;;2.53;;
69894;SDS011;57172;52.034;5.090;2023-02-28T12:40:19;4.00;;;2.78;;
69894;SDS011;57172;52.034;5.090;2023-02-28T12:42:51;4.88;;;2.80;;
69894;SDS011;57172;52.034;5.090;2023-02-28T12:46:07;4.07;;;2.70;;
69894;SDS011;57172;52.034;5.090;2023-02-28T12:48:53;3.63;;;2.60;;
69894;SDS011;57172;52.034;5.090;2023-02-28T12:51:23;3.38;;;2.55;;
69894;SDS011;57172;52.034;5.090;2023-02-28T12:56:52;8.93;;;2.70;;
69894;SDS011;57172;52.034;5.090;2023-02-28T12:59:27;3.50;;;2.50;;
69894;SDS011;57172;52.034;5.090;2023-02-28T13:07:49;4.18;;;2.50;;
69894;SDS011;57172;52.034;5.090;2023-02-28T13:10:40;4.90;;;2.78;;
69894;SDS011;57172;52.034;5.090;2023-02-28T13:13:13;3.33;;;2.50;;
69894;SDS011;57172;52.034;5.090;2023-02-28T13:18:36;3.63;;;2.53;;
69894;SDS011;57172;52.034;5.090;2023-02-28T13:21:08;3.50;;;2.60;;
69894;SDS011;57172;52.034;5.090;2023-02-28T13:34:32;3.92;;;2.85;;
69894;SDS011;57172;52.034;5.090;2023-02-28T13:37:30;3.80;;;2.60;;
69894;SDS011;57172;52.034;5.090;2023-02-28T14:07:00;4.17;;;2.73;;
69894;SDS011;57172;52.034;5.090;2023-02-28T14:09:34;4.45;;;2.58;;
69894;SDS011;57172;52.034;5.090;2023-02-28T14:15:26;4.72;;;2.78;;
69894;SDS011;57172;52.034;5.090;2023-02-28T14:18:03;4.07;;;2.70;;
69894;SDS011;57172;52.034;5.090;2023-02-28T14:20:39;4.03;;;2.80;;
69894;SDS011;57172;52.034;5.090;2023-02-28T14:31:52;3.80;;;2.83;;
69894;SDS011;57172;52.034;5.090;2023-02-28T14:37:03;3.90;;;2.78;;
69894;SDS011;57172;52.034;5.090;2023-02-28T14:39:31;4.80;;;2.90;;
69894;SDS011;57172;52.034;5.090;2023-02-28T14:41:59;4.05;;;3.03;;
69894;SDS011;57172;52.034;5.090;2023-02-28T14:44:30;4.90;;;3.15;;
69894;SDS011;57172;52.034;5.090;2023-02-28T14:47:02;4.40;;;2.80;;
69894;SDS011;57172;52.034;5.090;2023-02-28T14:49:36;3.83;;;3.03;;
69894;SDS011;57172;52.034;5.090;2023-02-28T14:55:00;5.13;;;3.00;;
69894;SDS011;57172;52.034;5.090;2023-02-28T14:57:31;5.03;;;3.10;;
69894;SDS011;57172;52.034;5.090;2023-02-28T15:02:39;4.10;;;2.88;;
69894;SDS011;57172;52.034;5.090;2023-02-28T15:07:36;5.38;;;3.25;;
69894;SDS011;57172;52.034;5.090;2023-02-28T15:10:07;4.72;;;3.30;;
69894;SDS011;57172;52.034;5.090;2023-02-28T15:12:51;4.07;;;2.87;;
69894;SDS011;57172;52.034;5.090;2023-02-28T15:15:24;3.72;;;3.10;;
69894;SDS011;57172;52.034;5.090;2023-02-28T15:20:46;4.75;;;3.00;;
69894;SDS011;57172;52.034;5.090;2023-02-28T15:23:14;4.47;;;3.13;;
69894;SDS011;57172;52.034;5.090;2023-02-28T15:25:41;3.87;;;3.17;;
69894;SDS011;57172;52.034;5.090;2023-02-28T15:28:11;4.97;;;3.30;;
69894;SDS011;57172;52.034;5.090;2023-02-28T15:30:50;4.13;;;3.00;;
69894;SDS011;57172;52.034;5.090;2023-02-28T15:33:26;6.38;;;3.20;;
69894;SDS011;57172;52.034;5.090;2023-02-28T15:39:00;4.77;;;3.30;;
69894;SDS011;57172;52.034;5.090;2023-02-28T15:41:40;4.95;;;3.35;;
69894;SDS011;57172;52.034;5.090;2023-02-28T15:44:14;6.32;;;3.30;;
69894;SDS011;57172;52.034;5.090;2023-02-28T15:49:34;6.53;;;3.13;;
69894;SDS011;57172;52.034;5.090;2023-02-28T15:52:17;4.97;;;3.30;;
69894;SDS011;57172;52.034;5.090;2023-02-28T15:54:47;5.88;;;3.38;;
69894;SDS011;57172;52.034;5.090;2023-02-28T15:57:17;6.68;;;3.00;;
69894;SDS011;57172;52.034;5.090;2023-02-28T15:59:49;4.53;;;3.20;;
69894;SDS011;57172;52.034;5.090;2023-02-28T16:02:21;4.97;;;3.00;;
69894;SDS011;57172;52.034;5.090;2023-02-28T16:07:36;4.78;;;3.03;;
69894;SDS011;57172;52.034;5.090;2023-02-28T16:10:05;4.85;;;3.10;;
69894;SDS011;57172;52.034;5.090;2023-02-28T16:12:35;4.05;;;3.00;;
69894;SDS011;57172;52.034;5.090;2023-02-28T16:15:20;4.38;;;3.10;;
69894;SDS011;57172;52.034;5.090;2023-02-28T16:17:47;6.03;;;3.30;;
69894;SDS011;57172;52.034;5.090;2023-02-28T16:20:19;4.70;;;3.00;;
69894;SDS011;57172;52.034;5.090;2023-02-28T16:22:54;5.00;;;3.05;;
69894;SDS011;57172;52.034;5.090;2023-02-28T16:25:33;6.47;;;3.38;;
69894;SDS011;57172;52.034;5.090;2023-02-28T16:28:12;4.65;;;3.08;;
69894;SDS011;57172;52.034;5.090;2023-02-28T16:30:45;5.37;;;3.03;;
69894;SDS011;57172;52.034;5.090;2023-02-28T16:33:12;4.43;;;2.90;;
69894;SDS011;57172;52.034;5.090;2023-02-28T16:35:39;4.07;;;3.00;;
69894;SDS011;57172;52.034;5.090;2023-02-28T16:38:07;5.43;;;3.13;;
69894;SDS011;57172;52.034;5.090;2023-02-28T16:40:34;5.18;;;3.03;;
69894;SDS011;57172;52.034;5.090;2023-02-28T16:43:04;6.27;;;3.83;;
69894;SDS011;57172;52.034;5.090;2023-02-28T16:45:34;5.50;;;3.50;;
69894;SDS011;57172;52.034;5.090;2023-02-28T16:48:01;6.43;;;3.40;;
69894;SDS011;57172;52.034;5.090;2023-02-28T16:50:29;4.95;;;3.53;;
69894;SDS011;57172;52.034;5.090;2023-02-28T16:52:58;5.55;;;3.58;;
69894;SDS011;57172;52.034;5.090;2023-02-28T16:55:26;6.47;;;3.30;;
69894;SDS011;57172;52.034;5.090;2023-02-28T16:57:54;5.63;;;3.20;;
69894;SDS011;57172;52.034;5.090;2023-02-28T17:00:23;5.53;;;3.20;;
69894;SDS011;57172;52.034;5.090;2023-02-28T17:02:51;6.35;;;3.45;;
69894;SDS011;57172;52.034;5.090;2023-02-28T17:05:19;7.30;;;3.40;;
69894;SDS011;57172;52.034;5.090;2023-02-28T17:07:46;6.77;;;3.60;;
69894;SDS011;57172;52.034;5.090;2023-02-28T17:10:18;5.50;;;3.25;;
69894;SDS011;57172;52.034;5.090;2023-02-28T17:12:49;7.43;;;3.15;;
69894;SDS011;57172;52.034;5.090;2023-02-28T17:15:17;8.15;;;3.30;;
69894;SDS011;57172;52.034;5.090;2023-02-28T17:17:46;7.47;;;3.17;;
69894;SDS011;57172;52.034;5.090;2023-02-28T17:20:14;7.33;;;3.20;;
69894;SDS011;57172;52.034;5.090;2023-02-28T17:22:52;7.32;;;3.20;;
69894;SDS011;57172;52.034;5.090;2023-02-28T17:25:19;5.28;;;3.15;;
69894;SDS011;57172;52.034;5.090;2023-02-28T17:27:47;11.77;;;3.15;;
69894;SDS011;57172;52.034;5.090;2023-02-28T17:30:18;9.30;;;3.15;;
69894;SDS011;57172;52.034;5.090;2023-02-28T17:32:49;6.30;;;3.10;;
69894;SDS011;57172;52.034;5.090;2023-02-28T17:35:16;6.13;;;3.30;;
69894;SDS011;57172;52.034;5.090;2023-02-28T17:37:43;4.95;;;3.15;;
69894;SDS011;57172;52.034;5.090;2023-02-28T17:40:14;4.63;;;3.13;;
69894;SDS011;57172;52.034;5.090;2023-02-28T17:42:43;5.38;;;3.20;;
69894;SDS011;57172;52.034;5.090;2023-02-28T17:45:11;4.27;;;2.80;;
69894;SDS011;57172;52.034;5.090;2023-02-28T17:47:39;6.97;;;3.20;;
69894;SDS011;57172;52.034;5.090;2023-02-28T17:50:09;7.30;;;2.90;;
69894;SDS011;57172;52.034;5.090;2023-02-28T17:52:43;8.13;;;3.17;;
69894;SDS011;57172;52.034;5.090;2023-02-28T17:55:10;6.20;;;3.30;;
69894;SDS011;57172;52.034;5.090;2023-02-28T17:57:38;6.43;;;3.40;;
69894;SDS011;57172;52.034;5.090;2023-02-28T18:00:05;6.47;;;3.40;;
69894;SDS011;57172;52.034;5.090;2023-02-28T18:02:36;4.85;;;3.05;;
69894;SDS011;57172;52.034;5.090;2023-02-28T18:05:03;5.60;;;3.13;;
69894;SDS011;57172;52.034;5.090;2023-02-28T18:07:31;5.55;;;3.08;;